createdAt,value
2022-11-17T00:01:29.274Z,99049.97
2022-11-17T00:04:32.165Z,99041.13
2022-11-17T00:07:35.167Z,99037.88
2022-11-17T00:10:38.114Z,99045.72
2022-11-17T00:13:59.512Z,99043.47
2022-11-17T00:17:05.095Z,99044.47
2022-11-17T00:20:28.545Z,99047.28
2022-11-17T00:23:50.696Z,99033.87
2022-11-17T00:27:02.747Z,99042.53
2022-11-17T00:30:07.245Z,99050.22
2022-11-17T00:33:28.411Z,99039.91
2022-11-17T00:36:37.450Z,99036.16
2022-11-17T00:39:40.319Z,99035.31
2022-11-17T00:42:43.130Z,99033.69
2022-11-17T00:45:45.876Z,99040.91
2022-11-17T00:48:48.825Z,99045.53
2022-11-17T00:51:55.911Z,99052.22
2022-11-17T00:54:58.798Z,99059.25
2022-11-17T00:58:01.856Z,99061.06
2022-11-17T01:01:04.762Z,99052.75
2022-11-17T01:04:08.447Z,99050.13
2022-11-17T01:07:11.436Z,99042.97
2022-11-17T01:10:14.528Z,99041.44
2022-11-17T01:13:18.088Z,99043.56
2022-11-17T01:16:20.977Z,99047.72
2022-11-17T01:19:24.318Z,99044.19
2022-11-17T01:22:27.204Z,99046.97
2022-11-17T01:25:30.066Z,99041.28
2022-11-17T01:28:33.258Z,99043.06
2022-11-17T01:31:38.770Z,99035.53
2022-11-17T01:34:43.847Z,99031.84
2022-11-17T01:37:46.677Z,99031.66
2022-11-17T01:40:49.571Z,99036.38
2022-11-17T01:44:19.412Z,99043.94
2022-11-17T01:47:31.302Z,99037.38
2022-11-17T01:50:37.957Z,99025.75
2022-11-17T01:53:43.085Z,99015.91
2022-11-17T01:56:47.745Z,99013.81
2022-11-17T02:00:01.929Z,99008.66
2022-11-17T02:03:07.492Z,99019.06
2022-11-17T02:06:15.655Z,99011.00
2022-11-17T02:09:19.271Z,99013.72
2022-11-17T02:12:24.945Z,99009.22
2022-11-17T02:15:29.656Z,99000.69
2022-11-17T02:18:32.545Z,98989.38
2022-11-17T02:21:59.882Z,98991.72
2022-11-17T02:25:36.661Z,98985.59
2022-11-17T02:29:06.783Z,98974.31
2022-11-17T02:32:42.043Z,98973.16
2022-11-17T02:35:54.207Z,98965.31
2022-11-17T02:39:10.792Z,98964.31
2022-11-17T02:42:53.444Z,98968.19
2022-11-17T02:46:18.249Z,98972.81
2022-11-17T02:49:25.631Z,98984.91
2022-11-17T02:52:30.333Z,98976.19
2022-11-17T02:55:35.792Z,98974.75
2022-11-17T02:58:38.941Z,98981.44
2022-11-17T03:02:03.610Z,98976.84
2022-11-17T03:05:14.137Z,98978.94
2022-11-17T03:09:04.708Z,98982.00
2022-11-17T03:12:15.273Z,98989.16
2022-11-17T03:15:26.973Z,98986.97
2022-11-17T03:18:36.424Z,98982.38
2022-11-17T03:21:44.856Z,98979.56
2022-11-17T03:24:50.991Z,98984.91
2022-11-17T03:28:00.195Z,98984.56
2022-11-17T03:31:05.458Z,98984.22
2022-11-17T03:34:14.448Z,98971.75
2022-11-17T03:37:19.709Z,98959.28
2022-11-17T03:40:28.481Z,98959.72
2022-11-17T03:43:32.446Z,98957.72
2022-11-17T03:46:36.984Z,98943.81
2022-11-17T03:50:02.719Z,98959.53
2022-11-17T03:53:06.662Z,98966.94
2022-11-17T03:56:11.572Z,98975.53
2022-11-17T03:59:30.897Z,98976.41
2022-11-17T04:02:33.941Z,98975.97
2022-11-17T04:05:36.774Z,98977.94
2022-11-17T04:08:40.037Z,98983.72
2022-11-17T04:12:01.734Z,98992.59
2022-11-17T04:15:23.927Z,98989.59
2022-11-17T04:18:27.399Z,98985.63
2022-11-17T04:21:30.240Z,98984.47
2022-11-17T04:24:33.042Z,98996.50
2022-11-17T04:27:54.479Z,98993.88
2022-11-17T04:30:57.299Z,98998.12
2022-11-17T04:34:02.250Z,98998.38
2022-11-17T04:37:17.611Z,99003.91
2022-11-17T04:40:20.842Z,99004.53
2022-11-17T04:43:23.561Z,98990.88
2022-11-17T04:46:26.944Z,98988.53
2022-11-17T04:49:31.674Z,98992.12
2022-11-17T04:52:34.478Z,99000.63
2022-11-17T04:55:37.361Z,98998.62
2022-11-17T04:58:52.456Z,98999.28
2022-11-17T05:01:55.294Z,98985.34
2022-11-17T05:04:58.156Z,98990.22
2022-11-17T05:08:01.027Z,99000.72
2022-11-17T05:11:23.465Z,98995.47
2022-11-17T05:14:27.263Z,98995.28
2022-11-17T05:17:30.094Z,98999.09
2022-11-17T05:20:33.253Z,99003.53
2022-11-17T05:23:55.212Z,99003.06
2022-11-17T05:26:57.937Z,99007.88
2022-11-17T05:30:01.907Z,99009.22
2022-11-17T05:33:04.774Z,99011.22
2022-11-17T05:36:08.389Z,99009.78
2022-11-17T05:39:11.321Z,99012.56
2022-11-17T05:42:14.203Z,99015.38
2022-11-17T05:45:17.044Z,99013.31
2022-11-17T05:48:20.343Z,99021.53
2022-11-17T05:51:24.878Z,99028.28
2022-11-17T05:54:27.761Z,99023.38
2022-11-17T05:57:31.491Z,99029.53
2022-11-17T06:00:34.847Z,99022.66
2022-11-17T06:03:44.548Z,99031.16
2022-11-17T06:06:48.689Z,99024.38
2022-11-17T06:09:51.712Z,99037.41
2022-11-17T06:12:54.537Z,99046.38
2022-11-17T06:15:59.257Z,99056.13
2022-11-17T06:19:08.605Z,99054.78
2022-11-17T06:22:13.148Z,99047.19
2022-11-17T06:25:17.687Z,99045.81
2022-11-17T06:28:22.636Z,99046.91
2022-11-17T06:31:26.924Z,99037.88
2022-11-17T06:34:32.099Z,99037.50
2022-11-17T06:37:34.955Z,99040.75
2022-11-17T06:40:37.856Z,99035.31
2022-11-17T06:43:40.706Z,99030.56
2022-11-17T06:46:48.705Z,99030.38
2022-11-17T06:49:51.861Z,99018.87
2022-11-17T06:53:02.874Z,99027.63
2022-11-17T06:56:07.762Z,99030.09
2022-11-17T06:59:10.934Z,99038.25
2022-11-17T07:02:14.238Z,99018.53
2022-11-17T07:05:17.043Z,99031.25
2022-11-17T07:08:22.527Z,99037.78
2022-11-17T07:11:25.355Z,99035.59
2022-11-17T07:14:28.477Z,99033.66
2022-11-17T07:17:32.322Z,99026.69
2022-11-17T07:20:35.155Z,99033.00
2022-11-17T07:23:39.305Z,99047.00
2022-11-17T07:26:42.151Z,99040.66
2022-11-17T07:29:44.897Z,99040.19
2022-11-17T07:32:53.365Z,99033.56
2022-11-17T07:36:05.889Z,99035.44
2022-11-17T07:39:08.946Z,99034.69
2022-11-17T07:42:11.918Z,99041.84
2022-11-17T07:45:14.857Z,99046.56
2022-11-17T07:48:17.712Z,99046.75
2022-11-17T07:51:21.421Z,99050.72
2022-11-17T07:54:24.256Z,99058.56
2022-11-17T07:57:28.998Z,99049.44
2022-11-17T08:00:33.913Z,99044.56
2022-11-17T08:03:36.909Z,99047.25
2022-11-17T08:06:39.765Z,99046.06
2022-11-17T08:09:42.712Z,99040.44
2022-11-17T08:12:45.802Z,99036.38
2022-11-17T08:15:48.726Z,99043.56
2022-11-17T08:18:52.651Z,99044.94
2022-11-17T08:21:55.697Z,99032.41
2022-11-17T08:24:58.532Z,99030.50
2022-11-17T08:28:01.447Z,99036.22
2022-11-17T08:31:05.605Z,99036.84
2022-11-17T08:34:08.519Z,99038.28
2022-11-17T08:37:11.676Z,99039.09
2022-11-17T08:40:15.449Z,99033.53
2022-11-17T08:43:18.356Z,99045.03
2022-11-17T08:46:21.229Z,99043.06
2022-11-17T08:49:24.187Z,99052.62
2022-11-17T08:52:30.165Z,99054.66
2022-11-17T08:55:40.875Z,99041.34
2022-11-17T08:58:45.384Z,99041.94
2022-11-17T09:01:48.343Z,99047.63
2022-11-17T09:04:51.248Z,99053.91
2022-11-17T09:07:54.320Z,99049.47
2022-11-17T09:10:57.241Z,99040.94
2022-11-17T09:14:00.190Z,99044.59
2022-11-17T09:17:03.067Z,99048.66
2022-11-17T09:20:06.701Z,99053.63
2022-11-17T09:23:09.696Z,99043.63
2022-11-17T09:26:14.401Z,99058.97
2022-11-17T09:29:17.234Z,99059.19
2022-11-17T09:32:21.053Z,99057.19
2022-11-17T09:35:23.998Z,99055.13
2022-11-17T09:38:26.995Z,99069.75
2022-11-17T09:41:39.188Z,99075.44
2022-11-17T09:44:47.969Z,99074.38
2022-11-17T09:48:12.434Z,99075.00
2022-11-17T09:51:17.535Z,99072.63
2022-11-17T09:54:43.583Z,99074.28
2022-11-17T09:57:49.710Z,99076.41
2022-11-17T10:00:54.155Z,99080.59
2022-11-17T10:03:59.445Z,99068.81
2022-11-17T10:07:04.227Z,99061.78
2022-11-17T10:10:13.665Z,99054.94
2022-11-17T10:13:22.407Z,99058.16
2022-11-17T10:16:25.456Z,99053.00
2022-11-17T10:19:32.437Z,99042.31
2022-11-17T10:22:37.084Z,99027.25
2022-11-17T10:25:43.377Z,99009.19
2022-11-17T10:28:46.497Z,99003.31
2022-11-17T10:31:49.471Z,99007.84
2022-11-17T10:34:52.380Z,99006.81
2022-11-17T10:38:01.381Z,99010.78
2022-11-17T10:41:04.470Z,99016.53
2022-11-17T10:44:26.874Z,99022.88
2022-11-17T10:47:40.328Z,99011.22
2022-11-17T10:50:53.594Z,99013.31
2022-11-17T10:54:15.438Z,99009.03
2022-11-17T10:57:23.544Z,99003.69
2022-11-17T11:00:35.044Z,99002.56
2022-11-17T11:03:49.451Z,98997.16
2022-11-17T11:07:12.983Z,98996.28
2022-11-17T11:10:33.090Z,98995.50
2022-11-17T11:13:47.859Z,98988.88
2022-11-17T11:16:51.496Z,98996.09
2022-11-17T11:19:55.158Z,99009.91
2022-11-17T11:23:03.346Z,98997.31
2022-11-17T11:26:24.357Z,99005.88
2022-11-17T11:29:58.093Z,99004.50
2022-11-17T11:33:15.596Z,99003.97
2022-11-17T11:36:43.322Z,99000.34
2022-11-17T11:40:15.701Z,99006.16
2022-11-17T11:43:45.978Z,99020.81
2022-11-17T11:47:17.172Z,99032.84
2022-11-17T11:52:32.639Z,99015.41
2022-11-17T11:55:37.371Z,99020.91
2022-11-17T11:59:03.835Z,99014.06
2022-11-17T12:02:16.792Z,99015.31
2022-11-17T12:06:00.173Z,99008.41
2022-11-17T12:09:14.998Z,99013.03
2022-11-17T12:12:21.198Z,99029.09
2022-11-17T12:15:23.999Z,99035.19
2022-11-17T12:18:26.839Z,99034.81
2022-11-17T12:21:30.568Z,99051.06
2022-11-17T12:24:38.190Z,99057.16
2022-11-17T12:27:42.251Z,99062.03
2022-11-17T12:30:45.043Z,99069.16
2022-11-17T12:33:53.963Z,99053.31
2022-11-17T12:37:18.881Z,99035.66
2022-11-17T12:40:40.178Z,99028.53
2022-11-17T12:43:43.373Z,99022.41
2022-11-17T12:46:48.356Z,99023.63
2022-11-17T12:50:13.089Z,99038.50
2022-11-17T12:53:42.385Z,99038.06
2022-11-17T12:56:47.757Z,99038.50
2022-11-17T13:00:20.005Z,99035.44
2022-11-17T13:03:28.801Z,99026.72
2022-11-17T13:06:36.336Z,99039.50
2022-11-17T13:09:39.770Z,99047.00
2022-11-17T13:12:42.635Z,99043.56
2022-11-17T13:15:53.315Z,99039.31
2022-11-17T13:18:56.714Z,99042.97
2022-11-17T13:22:06.383Z,99038.13
2022-11-17T13:25:27.495Z,99038.09
2022-11-17T13:28:32.390Z,99044.19
2022-11-17T13:31:35.407Z,99056.37
2022-11-17T13:34:46.538Z,99048.25
2022-11-17T13:38:02.815Z,99051.09
2022-11-17T13:41:06.077Z,99046.44
2022-11-17T13:44:16.124Z,99042.19
2022-11-17T13:47:21.185Z,99057.97
2022-11-17T13:50:33.726Z,99059.00
2022-11-17T13:53:36.656Z,99056.16
2022-11-17T13:56:41.750Z,99047.84
2022-11-17T13:59:45.202Z,99050.06
2022-11-17T14:03:00.046Z,99044.78
2022-11-17T14:06:05.240Z,99041.56
2022-11-17T14:09:10.383Z,99048.03
2022-11-17T14:12:17.436Z,99043.16
2022-11-17T14:15:28.486Z,99047.84
2022-11-17T14:18:38.763Z,99039.31
2022-11-17T14:22:26.163Z,99037.91
2022-11-17T14:25:35.062Z,99052.09
2022-11-17T14:28:38.155Z,99049.44
2022-11-17T14:31:41.133Z,99044.19
2022-11-17T14:34:44.076Z,99033.03
2022-11-17T14:37:47.116Z,99041.94
2022-11-17T14:40:54.126Z,99038.09
2022-11-17T14:43:57.108Z,99041.94
2022-11-17T14:47:00.215Z,99024.72
2022-11-17T14:50:03.772Z,99021.66
2022-11-17T14:53:06.866Z,99013.34
2022-11-17T14:56:10.998Z,98998.75
2022-11-17T14:59:14.376Z,98985.19
2022-11-17T15:02:17.558Z,98978.50
2022-11-17T15:05:20.725Z,98986.19
2022-11-17T15:08:23.595Z,99009.87
2022-11-17T15:11:27.850Z,99020.41
2022-11-17T15:14:30.732Z,99021.22
2022-11-17T15:17:33.582Z,99018.78
2022-11-17T15:20:36.382Z,99016.56
2022-11-17T15:23:40.784Z,99023.84
2022-11-17T15:26:43.824Z,99030.12
2022-11-17T15:29:47.452Z,99040.25
2022-11-17T15:32:51.778Z,99038.63
2022-11-17T15:36:02.879Z,99030.12
2022-11-17T15:39:06.420Z,99039.03
2022-11-17T15:42:09.371Z,99055.63
2022-11-17T15:45:12.374Z,99069.41
2022-11-17T15:48:18.774Z,99068.78
2022-11-17T15:51:24.185Z,99067.56
2022-11-17T15:54:27.245Z,99073.03
2022-11-17T15:57:30.212Z,99081.72
2022-11-17T16:00:34.128Z,99086.00
2022-11-17T16:03:37.219Z,99096.28
2022-11-17T16:06:41.608Z,99094.66
2022-11-17T16:09:47.536Z,99083.69
2022-11-17T16:12:52.250Z,99081.06
2022-11-17T16:15:55.892Z,99089.16
2022-11-17T16:18:58.995Z,99097.44
2022-11-17T16:22:02.072Z,99100.28
2022-11-17T16:25:05.847Z,99102.69
2022-11-17T16:28:09.184Z,99111.38
2022-11-17T16:31:17.596Z,99109.94
2022-11-17T16:34:22.164Z,99111.09
2022-11-17T16:37:25.282Z,99113.25
2022-11-17T16:40:31.020Z,99103.88
2022-11-17T16:43:34.028Z,99099.81
2022-11-17T16:46:43.287Z,99105.84
2022-11-17T16:49:51.615Z,99103.41
2022-11-17T16:52:54.824Z,99103.16
2022-11-17T16:56:09.237Z,99089.75
2022-11-17T16:59:12.849Z,99093.94
2022-11-17T17:02:15.833Z,99088.63
2022-11-17T17:05:18.704Z,99091.81
2022-11-17T17:08:22.205Z,99091.34
2022-11-17T17:11:26.054Z,99096.38
2022-11-17T17:14:29.246Z,99104.00
2022-11-17T17:17:32.392Z,99099.38
2022-11-17T17:20:39.421Z,99099.56
2022-11-17T17:23:43.271Z,99090.88
2022-11-17T17:26:49.984Z,99076.31
2022-11-17T17:29:57.262Z,99088.63
2022-11-17T17:33:00.565Z,99091.81
2022-11-17T17:36:09.891Z,99103.53
2022-11-17T17:39:16.028Z,99090.97
2022-11-17T17:42:20.772Z,99087.28
2022-11-17T17:45:26.690Z,99095.53
2022-11-17T17:48:34.664Z,99080.97
2022-11-17T17:51:44.692Z,99070.22
2022-11-17T17:54:47.729Z,99071.41
2022-11-17T17:57:50.776Z,99076.84
2022-11-17T18:00:54.053Z,99076.38
2022-11-17T18:04:05.156Z,99072.69
2022-11-17T18:07:09.498Z,99059.12
2022-11-17T18:10:13.913Z,99052.06
2022-11-17T18:13:16.933Z,99050.00
2022-11-17T18:16:27.671Z,99040.31
2022-11-17T18:19:33.399Z,99043.69
2022-11-17T18:22:38.652Z,99059.44
2022-11-17T18:25:42.136Z,99069.94
2022-11-17T18:28:54.619Z,99065.69
2022-11-17T18:31:59.673Z,99076.81
2022-11-17T18:35:02.765Z,99073.56
2022-11-17T18:38:06.259Z,99064.06
2022-11-17T18:41:15.643Z,99066.06
2022-11-17T18:44:20.019Z,99059.00
2022-11-17T18:47:23.646Z,99038.81
2022-11-17T18:50:27.093Z,99041.63
2022-11-17T18:53:34.366Z,99041.63
2022-11-17T18:56:41.372Z,99038.19
2022-11-17T18:59:44.634Z,99024.63
2022-11-17T19:02:47.997Z,99020.38
2022-11-17T19:05:51.528Z,99022.62
2022-11-17T19:08:55.686Z,99040.19
2022-11-17T19:11:59.762Z,99038.56
2022-11-17T19:15:03.474Z,99050.88
2022-11-17T19:18:08.336Z,99066.44
2022-11-17T19:21:26.928Z,99069.69
2022-11-17T19:24:33.656Z,99073.13
2022-11-17T19:27:39.017Z,99078.72
2022-11-17T19:30:43.145Z,99071.69
2022-11-17T19:33:48.811Z,99072.47
2022-11-17T19:36:52.426Z,99068.41
2022-11-17T19:39:56.249Z,99069.78
2022-11-17T19:43:03.599Z,99082.91
2022-11-17T19:46:12.174Z,99068.78
2022-11-17T19:49:17.435Z,99076.84
2022-11-17T19:52:23.692Z,99078.22
2022-11-17T19:55:27.838Z,99077.78
2022-11-17T19:58:33.517Z,99062.84
2022-11-17T20:01:38.218Z,99066.66
2022-11-17T20:04:42.391Z,99070.63
2022-11-17T20:07:45.773Z,99068.81
2022-11-17T20:10:49.355Z,99070.19
2022-11-17T20:13:52.912Z,99052.62
2022-11-17T20:16:56.231Z,99038.88
2022-11-17T20:19:59.678Z,99052.00
2022-11-17T20:23:03.093Z,99059.41
2022-11-17T20:26:17.160Z,99072.28
2022-11-17T20:29:23.922Z,99069.47
2022-11-17T20:32:36.655Z,99075.53
2022-11-17T20:35:40.060Z,99077.72
2022-11-17T20:38:43.797Z,99071.03
2022-11-17T20:41:47.393Z,99065.34
2022-11-17T20:44:53.688Z,99069.69
2022-11-17T20:47:56.875Z,99063.19
2022-11-17T20:51:05.728Z,99061.91
2022-11-17T20:54:12.400Z,99060.66
2022-11-17T20:57:15.647Z,99070.94
2022-11-17T21:00:18.930Z,99067.69
2022-11-17T21:03:22.712Z,99066.78
2022-11-17T21:06:26.453Z,99062.28
2022-11-17T21:09:29.514Z,99073.66
2022-11-17T21:12:33.471Z,99067.34
2022-11-17T21:15:36.426Z,99062.63
2022-11-17T21:18:45.300Z,99063.97
2022-11-17T21:21:53.670Z,99061.69
2022-11-17T21:24:57.860Z,99065.56
2022-11-17T21:28:01.030Z,99065.00
2022-11-17T21:31:10.074Z,99059.69
2022-11-17T21:34:17.048Z,99054.66
2022-11-17T21:37:24.681Z,99047.44
2022-11-17T21:40:27.641Z,99042.13
2022-11-17T21:43:36.009Z,99044.56
2022-11-17T21:46:38.941Z,99014.56
2022-11-17T21:49:44.173Z,99039.88
2022-11-17T21:52:47.056Z,99033.72
2022-11-17T21:55:50.212Z,99038.44
2022-11-17T21:58:57.521Z,99038.78
2022-11-17T22:02:00.585Z,99031.56
2022-11-17T22:05:03.520Z,99040.16
2022-11-17T22:08:09.591Z,99052.81
2022-11-17T22:11:14.191Z,99045.81
2022-11-17T22:14:19.697Z,99044.84
2022-11-17T22:17:22.500Z,99048.09
2022-11-17T22:20:25.406Z,99059.72
2022-11-17T22:23:31.956Z,99062.44
2022-11-17T22:26:38.710Z,99054.09
2022-11-17T22:29:41.606Z,99059.31
2022-11-17T22:32:45.387Z,99057.34
2022-11-17T22:35:48.667Z,99056.00
2022-11-17T22:38:52.480Z,99054.34
2022-11-17T22:41:55.302Z,99059.59
2022-11-17T22:44:58.244Z,99069.25
2022-11-17T22:48:06.274Z,99074.94
2022-11-17T22:51:09.985Z,99069.88
2022-11-17T22:54:13.162Z,99075.94
2022-11-17T22:57:16.091Z,99067.84
2022-11-17T23:00:19.338Z,99070.13
2022-11-17T23:03:22.469Z,99076.28
2022-11-17T23:06:27.410Z,99069.25
2022-11-17T23:09:30.358Z,99075.94
2022-11-17T23:12:33.209Z,99058.72
2022-11-17T23:15:39.156Z,99052.50
2022-11-17T23:18:42.160Z,99052.31
2022-11-17T23:21:45.032Z,99054.56
2022-11-17T23:24:47.832Z,99053.72
2022-11-17T23:27:50.591Z,99035.69
2022-11-17T23:31:05.757Z,99036.78
2022-11-17T23:34:10.571Z,99035.97
2022-11-17T23:37:13.473Z,99030.00
2022-11-17T23:40:16.677Z,99028.03
2022-11-17T23:43:19.922Z,99013.62
2022-11-17T23:46:24.717Z,99014.06
2022-11-17T23:49:27.443Z,99007.38
2022-11-17T23:52:33.147Z,99007.38
2022-11-17T23:55:35.983Z,98993.66
2022-11-17T23:58:39.782Z,98983.19
